sensor_id;sensor_type;location;lat;lon;timestamp;temperature;humidity
14188;DHT22;7175;51.978;5.330;2023-07-30T00:00:15;16.30;99.90
14188;DHT22;7175;51.978;5.330;2023-07-30T00:02:44;16.20;99.90
14188;DHT22;7175;51.978;5.330;2023-07-30T00:05:15;16.20;99.90
14188;DHT22;7175;51.978;5.330;2023-07-30T00:07:43;16.20;99.90
14188;DHT22;7175;51.978;5.330;2023-07-30T00:10:11;16.20;99.90
14188;DHT22;7175;51.978;5.330;2023-07-30T00:12:39;16.10;99.90
14188;DHT22;7175;51.978;5.330;2023-07-30T00:15:10;16.10;99.90
14188;DHT22;7175;51.978;5.330;2023-07-30T00:17:42;16.10;99.90
14188;DHT22;7175;51.978;5.330;2023-07-30T00:20:12;16.00;99.90
14188;DHT22;7175;51.978;5.330;2023-07-30T00:22:42;16.00;99.90
14188;DHT22;7175;51.978;5.330;2023-07-30T00:25:11;16.00;99.90
14188;DHT22;7175;51.978;5.330;2023-07-30T00:27:39;16.00;99.90
14188;DHT22;7175;51.978;5.330;2023-07-30T00:30:08;16.00;99.90
14188;DHT22;7175;51.978;5.330;2023-07-30T00:32:37;16.00;99.90
14188;DHT22;7175;51.978;5.330;2023-07-30T00:35:11;16.00;99.90
14188;DHT22;7175;51.978;5.330;2023-07-30T00:37:39;16.00;99.90
14188;DHT22;7175;51.978;5.330;2023-07-30T00:40:10;16.00;99.90
14188;DHT22;7175;51.978;5.330;2023-07-30T00:42:39;16.00;99.90
14188;DHT22;7175;51.978;5.330;2023-07-30T00:45:09;16.00;99.90
14188;DHT22;7175;51.978;5.330;2023-07-30T00:47:42;16.00;99.90
14188;DHT22;7175;51.978;5.330;2023-07-30T00:50:12;16.00;99.90
14188;DHT22;7175;51.978;5.330;2023-07-30T00:52:43;16.00;99.90
14188;DHT22;7175;51.978;5.330;2023-07-30T00:55:13;16.00;99.90
14188;DHT22;7175;51.978;5.330;2023-07-30T00:57:45;16.10;99.90
14188;DHT22;7175;51.978;5.330;2023-07-30T01:00:14;16.10;99.90
14188;DHT22;7175;51.978;5.330;2023-07-30T01:02:42;16.00;99.90
14188;DHT22;7175;51.978;5.330;2023-07-30T01:05:11;16.00;99.90
14188;DHT22;7175;51.978;5.330;2023-07-30T01:07:42;16.00;99.90
14188;DHT22;7175;51.978;5.330;2023-07-30T01:10:17;16.00;99.90
14188;DHT22;7175;51.978;5.330;2023-07-30T01:12:46;16.00;99.90
14188;DHT22;7175;51.978;5.330;2023-07-30T01:15:16;16.00;99.90
14188;DHT22;7175;51.978;5.330;2023-07-30T01:17:45;16.00;99.90
14188;DHT22;7175;51.978;5.330;2023-07-30T01:20:15;16.00;99.90
14188;DHT22;7175;51.978;5.330;2023-07-30T01:22:45;15.90;99.90
14188;DHT22;7175;51.978;5.330;2023-07-30T01:25:15;15.90;99.90
14188;DHT22;7175;51.978;5.330;2023-07-30T01:27:48;15.90;99.90
14188;DHT22;7175;51.978;5.330;2023-07-30T01:30:24;15.90;99.90
14188;DHT22;7175;51.978;5.330;2023-07-30T01:32:54;15.90;99.90
14188;DHT22;7175;51.978;5.330;2023-07-30T01:35:27;15.80;99.90
14188;DHT22;7175;51.978;5.330;2023-07-30T01:37:58;15.90;99.90
14188;DHT22;7175;51.978;5.330;2023-07-30T01:40:29;15.90;99.90
14188;DHT22;7175;51.978;5.330;2023-07-30T01:43:00;15.90;99.90
14188;DHT22;7175;51.978;5.330;2023-07-30T01:45:28;15.90;99.90
14188;DHT22;7175;51.978;5.330;2023-07-30T01:47:56;15.80;99.90
14188;DHT22;7175;51.978;5.330;2023-07-30T01:50:26;15.80;99.90
14188;DHT22;7175;51.978;5.330;2023-07-30T01:52:54;15.80;99.90
14188;DHT22;7175;51.978;5.330;2023-07-30T01:55:24;15.80;99.90
14188;DHT22;7175;51.978;5.330;2023-07-30T01:57:53;15.80;99.90
14188;DHT22;7175;51.978;5.330;2023-07-30T02:00:22;15.80;99.90
14188;DHT22;7175;51.978;5.330;2023-07-30T02:02:50;15.80;99.90
14188;DHT22;7175;51.978;5.330;2023-07-30T02:05:19;15.80;99.90
14188;DHT22;7175;51.978;5.330;2023-07-30T02:07:49;15.80;99.90
14188;DHT22;7175;51.978;5.330;2023-07-30T02:10:18;15.80;99.90
14188;DHT22;7175;51.978;5.330;2023-07-30T02:12:48;15.80;99.90
14188;DHT22;7175;51.978;5.330;2023-07-30T02:15:19;15.70;99.90
14188;DHT22;7175;51.978;5.330;2023-07-30T02:17:48;15.70;99.90
14188;DHT22;7175;51.978;5.330;2023-07-30T02:20:17;15.70;99.90
14188;DHT22;7175;51.978;5.330;2023-07-30T02:22:45;15.70;99.90
14188;DHT22;7175;51.978;5.330;2023-07-30T02:25:13;15.60;99.90
14188;DHT22;7175;51.978;5.330;2023-07-30T02:27:41;15.70;99.90
14188;DHT22;7175;51.978;5.330;2023-07-30T02:30:12;15.70;99.90
14188;DHT22;7175;51.978;5.330;2023-07-30T02:32:43;15.70;99.90
14188;DHT22;7175;51.978;5.330;2023-07-30T02:35:11;15.70;99.90
14188;DHT22;7175;51.978;5.330;2023-07-30T02:37:40;15.60;99.90
14188;DHT22;7175;51.978;5.330;2023-07-30T02:40:09;15.70;99.90
14188;DHT22;7175;51.978;5.330;2023-07-30T02:42:37;15.70;99.90
14188;DHT22;7175;51.978;5.330;2023-07-30T02:45:06;15.70;99.90
14188;DHT22;7175;51.978;5.330;2023-07-30T02:47:37;15.70;99.90
14188;DHT22;7175;51.978;5.330;2023-07-30T02:50:06;15.70;99.90
14188;DHT22;7175;51.978;5.330;2023-07-30T02:52:35;15.70;99.90
14188;DHT22;7175;51.978;5.330;2023-07-30T02:55:04;15.70;99.90
14188;DHT22;7175;51.978;5.330;2023-07-30T02:57:32;15.70;99.90
14188;DHT22;7175;51.978;5.330;2023-07-30T03:00:01;15.60;99.90
14188;DHT22;7175;51.978;5.330;2023-07-30T03:02:31;15.60;99.90
14188;DHT22;7175;51.978;5.330;2023-07-30T03:05:03;15.60;99.90
14188;DHT22;7175;51.978;5.330;2023-07-30T03:07:32;15.60;99.90
14188;DHT22;7175;51.978;5.330;2023-07-30T03:10:00;15.60;99.90
14188;DHT22;7175;51.978;5.330;2023-07-30T03:12:29;15.60;99.90
14188;DHT22;7175;51.978;5.330;2023-07-30T03:14:58;15.60;99.90
14188;DHT22;7175;51.978;5.330;2023-07-30T03:17:27;15.60;99.90
14188;DHT22;7175;51.978;5.330;2023-07-30T03:19:56;15.60;99.90
14188;DHT22;7175;51.978;5.330;2023-07-30T03:22:26;15.60;99.90
14188;DHT22;7175;51.978;5.330;2023-07-30T03:24:54;15.50;99.90
14188;DHT22;7175;51.978;5.330;2023-07-30T03:27:25;15.60;99.90
14188;DHT22;7175;51.978;5.330;2023-07-30T03:29:53;15.50;99.90
14188;DHT22;7175;51.978;5.330;2023-07-30T03:32:21;15.60;99.90
14188;DHT22;7175;51.978;5.330;2023-07-30T03:34:50;15.60;99.90
14188;DHT22;7175;51.978;5.330;2023-07-30T03:37:18;15.50;99.90
14188;DHT22;7175;51.978;5.330;2023-07-30T03:39:48;15.60;99.90
14188;DHT22;7175;51.978;5.330;2023-07-30T03:42:17;15.50;99.90
14188;DHT22;7175;51.978;5.330;2023-07-30T03:44:45;15.50;99.90
14188;DHT22;7175;51.978;5.330;2023-07-30T03:47:15;15.60;99.90
14188;DHT22;7175;51.978;5.330;2023-07-30T03:49:43;15.50;99.90
14188;DHT22;7175;51.978;5.330;2023-07-30T03:52:11;15.60;99.90
14188;DHT22;7175;51.978;5.330;2023-07-30T03:54:51;15.60;99.90
14188;DHT22;7175;51.978;5.330;2023-07-30T03:57:19;15.70;99.90
14188;DHT22;7175;51.978;5.330;2023-07-30T03:59:47;15.70;99.90
14188;DHT22;7175;51.978;5.330;2023-07-30T04:02:16;15.80;99.90
14188;DHT22;7175;51.978;5.330;2023-07-30T04:04:47;15.80;99.90
14188;DHT22;7175;51.978;5.330;2023-07-30T04:07:17;15.80;99.90
14188;DHT22;7175;51.978;5.330;2023-07-30T04:09:47;15.80;99.90
14188;DHT22;7175;51.978;5.330;2023-07-30T04:12:18;15.90;99.90
14188;DHT22;7175;51.978;5.330;2023-07-30T04:14:48;15.90;99.90
14188;DHT22;7175;51.978;5.330;2023-07-30T04:17:17;15.90;99.90
14188;DHT22;7175;51.978;5.330;2023-07-30T04:19:46;15.90;99.90
14188;DHT22;7175;51.978;5.330;2023-07-30T04:22:14;15.90;99.90
14188;DHT22;7175;51.978;5.330;2023-07-30T04:24:43;16.00;99.90
14188;DHT22;7175;51.978;5.330;2023-07-30T04:27:11;16.00;99.90
14188;DHT22;7175;51.978;5.330;2023-07-30T04:29:41;16.10;99.90
14188;DHT22;7175;51.978;5.330;2023-07-30T04:32:11;16.20;99.90
14188;DHT22;7175;51.978;5.330;2023-07-30T04:34:40;16.30;99.90
14188;DHT22;7175;51.978;5.330;2023-07-30T04:37:10;16.30;99.90
14188;DHT22;7175;51.978;5.330;2023-07-30T04:39:39;16.40;99.90
14188;DHT22;7175;51.978;5.330;2023-07-30T04:42:08;16.40;99.90
14188;DHT22;7175;51.978;5.330;2023-07-30T04:44:41;16.40;99.90
14188;DHT22;7175;51.978;5.330;2023-07-30T04:47:12;16.50;99.90
14188;DHT22;7175;51.978;5.330;2023-07-30T04:49:43;16.50;99.90
14188;DHT22;7175;51.978;5.330;2023-07-30T04:52:13;16.50;99.90
14188;DHT22;7175;51.978;5.330;2023-07-30T04:54:41;16.50;99.90
14188;DHT22;7175;51.978;5.330;2023-07-30T04:57:10;16.50;99.90
14188;DHT22;7175;51.978;5.330;2023-07-30T04:59:39;16.50;99.90
14188;DHT22;7175;51.978;5.330;2023-07-30T05:02:11;16.50;99.90
14188;DHT22;7175;51.978;5.330;2023-07-30T05:04:40;16.60;99.90
14188;DHT22;7175;51.978;5.330;2023-07-30T05:07:08;16.60;99.90
14188;DHT22;7175;51.978;5.330;2023-07-30T05:09:36;16.60;99.90
14188;DHT22;7175;51.978;5.330;2023-07-30T05:12:06;16.60;99.90
14188;DHT22;7175;51.978;5.330;2023-07-30T05:14:38;16.50;99.90
14188;DHT22;7175;51.978;5.330;2023-07-30T05:17:13;16.60;99.90
14188;DHT22;7175;51.978;5.330;2023-07-30T05:19:41;16.60;99.90
14188;DHT22;7175;51.978;5.330;2023-07-30T05:22:10;16.60;99.90
14188;DHT22;7175;51.978;5.330;2023-07-30T05:24:38;16.70;99.90
14188;DHT22;7175;51.978;5.330;2023-07-30T05:27:07;16.70;99.90
14188;DHT22;7175;51.978;5.330;2023-07-30T05:29:35;16.70;99.90
14188;DHT22;7175;51.978;5.330;2023-07-30T05:32:04;16.70;99.90
14188;DHT22;7175;51.978;5.330;2023-07-30T05:34:34;16.80;99.90
14188;DHT22;7175;51.978;5.330;2023-07-30T05:37:03;16.80;99.90
14188;DHT22;7175;51.978;5.330;2023-07-30T05:39:31;16.70;99.90
14188;DHT22;7175;51.978;5.330;2023-07-30T05:42:01;16.80;99.90
14188;DHT22;7175;51.978;5.330;2023-07-30T05:44:29;16.80;99.90
14188;DHT22;7175;51.978;5.330;2023-07-30T05:46:58;16.90;99.90
14188;DHT22;7175;51.978;5.330;2023-07-30T05:49:27;16.90;99.90
14188;DHT22;7175;51.978;5.330;2023-07-30T05:52:00;16.90;99.90
14188;DHT22;7175;51.978;5.330;2023-07-30T05:54:28;17.00;99.90
14188;DHT22;7175;51.978;5.330;2023-07-30T05:56:57;17.00;99.90
14188;DHT22;7175;51.978;5.330;2023-07-30T05:59:25;17.10;99.90
14188;DHT22;7175;51.978;5.330;2023-07-30T06:01:56;17.20;99.90
14188;DHT22;7175;51.978;5.330;2023-07-30T06:04:24;17.20;99.90
14188;DHT22;7175;51.978;5.330;2023-07-30T06:06:53;17.10;99.90
14188;DHT22;7175;51.978;5.330;2023-07-30T06:09:23;17.20;99.90
14188;DHT22;7175;51.978;5.330;2023-07-30T06:11:51;17.20;99.90
14188;DHT22;7175;51.978;5.330;2023-07-30T06:14:21;17.30;99.90
14188;DHT22;7175;51.978;5.330;2023-07-30T06:16:50;17.30;99.90
14188;DHT22;7175;51.978;5.330;2023-07-30T06:19:20;17.30;99.90
14188;DHT22;7175;51.978;5.330;2023-07-30T06:21:50;17.30;99.90
14188;DHT22;7175;51.978;5.330;2023-07-30T06:24:19;17.30;99.90
14188;DHT22;7175;51.978;5.330;2023-07-30T06:26:52;17.40;99.90
14188;DHT22;7175;51.978;5.330;2023-07-30T06:29:20;17.50;99.90
14188;DHT22;7175;51.978;5.330;2023-07-30T06:31:51;17.50;99.90
14188;DHT22;7175;51.978;5.330;2023-07-30T06:34:19;17.60;99.90
14188;DHT22;7175;51.978;5.330;2023-07-30T06:36:47;17.70;99.90
14188;DHT22;7175;51.978;5.330;2023-07-30T06:39:16;17.70;99.90
14188;DHT22;7175;51.978;5.330;2023-07-30T06:41:45;17.80;99.90
14188;DHT22;7175;51.978;5.330;2023-07-30T06:44:17;17.90;99.90
14188;DHT22;7175;51.978;5.330;2023-07-30T06:46:46;17.90;99.90
14188;DHT22;7175;51.978;5.330;2023-07-30T06:49:14;18.00;99.90
14188;DHT22;7175;51.978;5.330;2023-07-30T06:51:44;18.10;99.90
14188;DHT22;7175;51.978;5.330;2023-07-30T06:54:13;18.10;99.90
14188;DHT22;7175;51.978;5.330;2023-07-30T06:56:41;18.10;99.90
14188;DHT22;7175;51.978;5.330;2023-07-30T06:59:10;18.00;99.90
14188;DHT22;7175;51.978;5.330;2023-07-30T07:01:39;17.90;99.90
14188;DHT22;7175;51.978;5.330;2023-07-30T07:04:08;18.00;99.90
14188;DHT22;7175;51.978;5.330;2023-07-30T07:06:37;18.00;99.90
14188;DHT22;7175;51.978;5.330;2023-07-30T07:09:08;18.00;99.90
14188;DHT22;7175;51.978;5.330;2023-07-30T07:11:39;18.00;99.90
14188;DHT22;7175;51.978;5.330;2023-07-30T07:14:07;18.00;99.90
14188;DHT22;7175;51.978;5.330;2023-07-30T07:16:39;18.10;99.90
14188;DHT22;7175;51.978;5.330;2023-07-30T07:19:08;18.10;99.90
14188;DHT22;7175;51.978;5.330;2023-07-30T07:21:36;18.00;99.90
14188;DHT22;7175;51.978;5.330;2023-07-30T07:24:05;17.90;99.90
14188;DHT22;7175;51.978;5.330;2023-07-30T07:26:35;17.80;99.90
14188;DHT22;7175;51.978;5.330;2023-07-30T07:29:03;18.00;99.90
14188;DHT22;7175;51.978;5.330;2023-07-30T07:31:32;18.00;99.90
14188;DHT22;7175;51.978;5.330;2023-07-30T07:34:03;17.90;99.90
14188;DHT22;7175;51.978;5.330;2023-07-30T07:36:31;17.90;99.90
14188;DHT22;7175;51.978;5.330;2023-07-30T07:39:00;18.00;99.90
14188;DHT22;7175;51.978;5.330;2023-07-30T07:41:28;18.00;99.90
14188;DHT22;7175;51.978;5.330;2023-07-30T07:43:58;18.00;99.90
14188;DHT22;7175;51.978;5.330;2023-07-30T07:46:40;18.00;99.90
14188;DHT22;7175;51.978;5.330;2023-07-30T07:49:12;18.10;99.90
14188;DHT22;7175;51.978;5.330;2023-07-30T07:51:41;18.20;99.90
14188;DHT22;7175;51.978;5.330;2023-07-30T07:54:09;18.40;99.90
14188;DHT22;7175;51.978;5.330;2023-07-30T07:56:38;18.50;99.90
14188;DHT22;7175;51.978;5.330;2023-07-30T07:59:07;18.60;99.90
14188;DHT22;7175;51.978;5.330;2023-07-30T08:01:36;18.80;99.90
14188;DHT22;7175;51.978;5.330;2023-07-30T08:04:06;18.90;99.90
14188;DHT22;7175;51.978;5.330;2023-07-30T08:06:37;19.10;99.90
14188;DHT22;7175;51.978;5.330;2023-07-30T08:09:14;19.30;99.90
14188;DHT22;7175;51.978;5.330;2023-07-30T08:11:43;19.30;99.90
14188;DHT22;7175;51.978;5.330;2023-07-30T08:14:11;19.80;99.90
14188;DHT22;7175;51.978;5.330;2023-07-30T08:16:40;20.20;99.90
14188;DHT22;7175;51.978;5.330;2023-07-30T08:19:09;20.40;99.90
14188;DHT22;7175;51.978;5.330;2023-07-30T08:21:42;20.30;99.90
14188;DHT22;7175;51.978;5.330;2023-07-30T08:24:11;20.10;99.90
14188;DHT22;7175;51.978;5.330;2023-07-30T08:26:41;20.00;99.90
14188;DHT22;7175;51.978;5.330;2023-07-30T08:29:10;19.60;99.90
14188;DHT22;7175;51.978;5.330;2023-07-30T08:31:42;19.60;99.90
14188;DHT22;7175;51.978;5.330;2023-07-30T08:34:11;19.50;99.90
14188;DHT22;7175;51.978;5.330;2023-07-30T08:36:41;19.40;99.90
14188;DHT22;7175;51.978;5.330;2023-07-30T08:39:10;19.30;99.90
14188;DHT22;7175;51.978;5.330;2023-07-30T08:41:39;19.50;99.90
14188;DHT22;7175;51.978;5.330;2023-07-30T08:44:10;19.60;99.90
14188;DHT22;7175;51.978;5.330;2023-07-30T08:46:41;19.60;99.90
14188;DHT22;7175;51.978;5.330;2023-07-30T08:49:14;19.90;99.90
14188;DHT22;7175;51.978;5.330;2023-07-30T08:51:48;19.90;99.90
14188;DHT22;7175;51.978;5.330;2023-07-30T08:54:20;19.70;99.90
14188;DHT22;7175;51.978;5.330;2023-07-30T08:56:53;19.80;99.90
14188;DHT22;7175;51.978;5.330;2023-07-30T08:59:24;19.60;99.90
14188;DHT22;7175;51.978;5.330;2023-07-30T09:02:00;19.70;99.90
14188;DHT22;7175;51.978;5.330;2023-07-30T09:04:30;19.90;99.90
14188;DHT22;7175;51.978;5.330;2023-07-30T09:07:08;19.90;99.90
14188;DHT22;7175;51.978;5.330;2023-07-30T09:09:39;20.00;99.90
14188;DHT22;7175;51.978;5.330;2023-07-30T09:12:14;19.90;99.90
14188;DHT22;7175;51.978;5.330;2023-07-30T09:14:51;20.00;99.90
14188;DHT22;7175;51.978;5.330;2023-07-30T09:17:24;20.10;99.90
14188;DHT22;7175;51.978;5.330;2023-07-30T09:19:55;20.20;99.90
14188;DHT22;7175;51.978;5.330;2023-07-30T09:22:29;20.50;99.90
14188;DHT22;7175;51.978;5.330;2023-07-30T09:25:02;21.10;99.90
14188;DHT22;7175;51.978;5.330;2023-07-30T09:27:32;21.40;99.90
14188;DHT22;7175;51.978;5.330;2023-07-30T09:30:05;21.40;99.90
14188;DHT22;7175;51.978;5.330;2023-07-30T09:32:37;21.70;99.90
14188;DHT22;7175;51.978;5.330;2023-07-30T09:35:10;21.80;99.90
14188;DHT22;7175;51.978;5.330;2023-07-30T09:37:44;21.60;99.90
14188;DHT22;7175;51.978;5.330;2023-07-30T09:40:13;21.70;99.90
14188;DHT22;7175;51.978;5.330;2023-07-30T09:42:45;21.60;99.90
14188;DHT22;7175;51.978;5.330;2023-07-30T09:45:20;21.30;99.90
14188;DHT22;7175;51.978;5.330;2023-07-30T09:47:50;21.50;99.90
14188;DHT22;7175;51.978;5.330;2023-07-30T09:50:20;22.10;99.90
14188;DHT22;7175;51.978;5.330;2023-07-30T09:52:57;22.10;99.90
14188;DHT22;7175;51.978;5.330;2023-07-30T09:55:30;21.70;99.90
14188;DHT22;7175;51.978;5.330;2023-07-30T09:58:01;21.80;99.90
14188;DHT22;7175;51.978;5.330;2023-07-30T10:00:32;21.50;99.90
14188;DHT22;7175;51.978;5.330;2023-07-30T10:03:03;21.90;99.90
14188;DHT22;7175;51.978;5.330;2023-07-30T10:05:33;22.50;99.90
14188;DHT22;7175;51.978;5.330;2023-07-30T10:08:08;22.70;99.90
14188;DHT22;7175;51.978;5.330;2023-07-30T10:10:41;22.80;99.90
14188;DHT22;7175;51.978;5.330;2023-07-30T10:13:12;22.80;99.90
14188;DHT22;7175;51.978;5.330;2023-07-30T10:15:43;22.80;99.90
14188;DHT22;7175;51.978;5.330;2023-07-30T10:18:13;22.50;99.90
14188;DHT22;7175;51.978;5.330;2023-07-30T10:20:51;22.10;99.90
14188;DHT22;7175;51.978;5.330;2023-07-30T10:23:32;21.70;99.90
14188;DHT22;7175;51.978;5.330;2023-07-30T10:26:09;21.60;99.90
14188;DHT22;7175;51.978;5.330;2023-07-30T10:28:39;21.40;99.90
14188;DHT22;7175;51.978;5.330;2023-07-30T10:31:11;21.20;99.90
14188;DHT22;7175;51.978;5.330;2023-07-30T10:33:51;20.90;99.90
14188;DHT22;7175;51.978;5.330;2023-07-30T10:36:32;20.80;99.90
14188;DHT22;7175;51.978;5.330;2023-07-30T10:39:14;20.80;99.90
14188;DHT22;7175;51.978;5.330;2023-07-30T10:41:44;21.40;99.90
14188;DHT22;7175;51.978;5.330;2023-07-30T10:44:37;21.30;99.90
14188;DHT22;7175;51.978;5.330;2023-07-30T10:47:15;21.30;99.90
14188;DHT22;7175;51.978;5.330;2023-07-30T10:50:03;21.20;99.90
14188;DHT22;7175;51.978;5.330;2023-07-30T10:52:37;21.10;99.90
14188;DHT22;7175;51.978;5.330;2023-07-30T10:55:10;21.90;99.90
14188;DHT22;7175;51.978;5.330;2023-07-30T10:57:40;22.90;99.90
14188;DHT22;7175;51.978;5.330;2023-07-30T11:00:12;22.60;99.90
14188;DHT22;7175;51.978;5.330;2023-07-30T11:02:56;22.40;99.90
14188;DHT22;7175;51.978;5.330;2023-07-30T11:05:26;21.90;99.90
14188;DHT22;7175;51.978;5.330;2023-07-30T11:07:58;22.20;99.90
14188;DHT22;7175;51.978;5.330;2023-07-30T11:10:29;23.00;99.90
14188;DHT22;7175;51.978;5.330;2023-07-30T11:13:02;22.80;99.90
14188;DHT22;7175;51.978;5.330;2023-07-30T11:15:33;23.10;99.90
14188;DHT22;7175;51.978;5.330;2023-07-30T11:18:10;23.30;99.90
14188;DHT22;7175;51.978;5.330;2023-07-30T11:20:42;23.50;99.90
14188;DHT22;7175;51.978;5.330;2023-07-30T11:23:19;23.30;99.90
14188;DHT22;7175;51.978;5.330;2023-07-30T11:25:50;22.90;99.90
14188;DHT22;7175;51.978;5.330;2023-07-30T11:28:30;22.80;99.90
14188;DHT22;7175;51.978;5.330;2023-07-30T11:31:05;22.50;99.90
14188;DHT22;7175;51.978;5.330;2023-07-30T11:33:34;22.40;99.90
14188;DHT22;7175;51.978;5.330;2023-07-30T11:36:11;22.20;99.90
14188;DHT22;7175;51.978;5.330;2023-07-30T11:38:42;22.20;99.90
14188;DHT22;7175;51.978;5.330;2023-07-30T11:41:15;22.00;99.90
14188;DHT22;7175;51.978;5.330;2023-07-30T11:43:46;22.00;99.90
14188;DHT22;7175;51.978;5.330;2023-07-30T11:46:21;22.80;99.90
14188;DHT22;7175;51.978;5.330;2023-07-30T11:49:13;23.10;99.90
14188;DHT22;7175;51.978;5.330;2023-07-30T11:51:45;22.80;99.90
14188;DHT22;7175;51.978;5.330;2023-07-30T11:54:21;22.80;99.90
14188;DHT22;7175;51.978;5.330;2023-07-30T11:56:55;22.70;99.90
14188;DHT22;7175;51.978;5.330;2023-07-30T11:59:26;22.40;99.90
14188;DHT22;7175;51.978;5.330;2023-07-30T12:01:55;22.40;99.90
14188;DHT22;7175;51.978;5.330;2023-07-30T12:04:24;22.30;99.90
14188;DHT22;7175;51.978;5.330;2023-07-30T12:06:55;22.90;99.90
14188;DHT22;7175;51.978;5.330;2023-07-30T12:09:26;22.90;99.90
14188;DHT22;7175;51.978;5.330;2023-07-30T12:12:02;23.00;99.90
14188;DHT22;7175;51.978;5.330;2023-07-30T12:14:53;23.10;99.90
14188;DHT22;7175;51.978;5.330;2023-07-30T12:17:24;22.60;99.90
14188;DHT22;7175;51.978;5.330;2023-07-30T12:19:56;22.80;99.90
14188;DHT22;7175;51.978;5.330;2023-07-30T12:22:35;22.50;99.90
14188;DHT22;7175;51.978;5.330;2023-07-30T12:25:10;22.20;99.90
14188;DHT22;7175;51.978;5.330;2023-07-30T12:27:43;22.20;99.90
14188;DHT22;7175;51.978;5.330;2023-07-30T12:30:13;23.50;99.90
14188;DHT22;7175;51.978;5.330;2023-07-30T12:32:41;24.20;99.90
14188;DHT22;7175;51.978;5.330;2023-07-30T12:35:10;24.30;99.90
14188;DHT22;7175;51.978;5.330;2023-07-30T12:37:41;24.10;99.90
14188;DHT22;7175;51.978;5.330;2023-07-30T12:40:15;24.00;99.90
14188;DHT22;7175;51.978;5.330;2023-07-30T12:42:47;24.00;99.90
14188;DHT22;7175;51.978;5.330;2023-07-30T12:45:23;23.40;99.90
14188;DHT22;7175;51.978;5.330;2023-07-30T12:47:55;23.30;99.90
14188;DHT22;7175;51.978;5.330;2023-07-30T12:50:26;23.00;99.90
14188;DHT22;7175;51.978;5.330;2023-07-30T12:53:03;23.00;99.90
14188;DHT22;7175;51.978;5.330;2023-07-30T12:55:32;24.00;99.90
14188;DHT22;7175;51.978;5.330;2023-07-30T12:58:02;24.60;99.90
14188;DHT22;7175;51.978;5.330;2023-07-30T13:00:38;25.00;99.90
14188;DHT22;7175;51.978;5.330;2023-07-30T13:03:11;24.60;99.90
14188;DHT22;7175;51.978;5.330;2023-07-30T13:05:40;24.30;99.90
14188;DHT22;7175;51.978;5.330;2023-07-30T13:08:10;24.00;99.90
14188;DHT22;7175;51.978;5.330;2023-07-30T13:10:41;23.50;99.90
14188;DHT22;7175;51.978;5.330;2023-07-30T13:13:13;23.00;99.90
14188;DHT22;7175;51.978;5.330;2023-07-30T13:15:45;23.90;99.90
14188;DHT22;7175;51.978;5.330;2023-07-30T13:18:24;25.10;99.90
14188;DHT22;7175;51.978;5.330;2023-07-30T13:20:53;24.60;99.90
14188;DHT22;7175;51.978;5.330;2023-07-30T13:23:25;24.00;99.90
14188;DHT22;7175;51.978;5.330;2023-07-30T13:25:55;23.70;99.90
14188;DHT22;7175;51.978;5.330;2023-07-30T13:28:26;23.20;99.90
14188;DHT22;7175;51.978;5.330;2023-07-30T13:30:54;23.10;99.90
14188;DHT22;7175;51.978;5.330;2023-07-30T13:33:24;23.20;99.90
14188;DHT22;7175;51.978;5.330;2023-07-30T13:35:52;22.90;99.90
14188;DHT22;7175;51.978;5.330;2023-07-30T13:38:23;23.40;99.90
14188;DHT22;7175;51.978;5.330;2023-07-30T13:40:53;24.00;99.90
14188;DHT22;7175;51.978;5.330;2023-07-30T13:43:22;24.60;99.90
14188;DHT22;7175;51.978;5.330;2023-07-30T13:45:52;24.80;99.90
14188;DHT22;7175;51.978;5.330;2023-07-30T13:48:21;25.50;99.90
14188;DHT22;7175;51.978;5.330;2023-07-30T13:50:51;25.70;99.90
14188;DHT22;7175;51.978;5.330;2023-07-30T13:53:23;25.50;99.90
14188;DHT22;7175;51.978;5.330;2023-07-30T13:55:51;25.50;99.90
14188;DHT22;7175;51.978;5.330;2023-07-30T13:58:20;25.00;99.90
14188;DHT22;7175;51.978;5.330;2023-07-30T14:00:48;24.60;99.90
14188;DHT22;7175;51.978;5.330;2023-07-30T14:03:19;25.10;99.90
14188;DHT22;7175;51.978;5.330;2023-07-30T14:05:47;24.60;99.90
14188;DHT22;7175;51.978;5.330;2023-07-30T14:08:16;24.30;99.90
14188;DHT22;7175;51.978;5.330;2023-07-30T14:10:49;25.20;99.90
14188;DHT22;7175;51.978;5.330;2023-07-30T14:13:18;25.70;99.90
14188;DHT22;7175;51.978;5.330;2023-07-30T14:15:47;25.70;99.90
14188;DHT22;7175;51.978;5.330;2023-07-30T14:18:16;25.20;99.90
14188;DHT22;7175;51.978;5.330;2023-07-30T14:20:45;25.00;99.90
14188;DHT22;7175;51.978;5.330;2023-07-30T14:23:18;25.60;99.90
14188;DHT22;7175;51.978;5.330;2023-07-30T14:25:46;25.40;99.90
14188;DHT22;7175;51.978;5.330;2023-07-30T14:28:14;24.40;99.90
14188;DHT22;7175;51.978;5.330;2023-07-30T14:30:48;23.40;99.90
14188;DHT22;7175;51.978;5.330;2023-07-30T14:33:17;23.50;99.90
14188;DHT22;7175;51.978;5.330;2023-07-30T14:35:47;23.20;99.90
14188;DHT22;7175;51.978;5.330;2023-07-30T14:38:15;23.50;99.90
14188;DHT22;7175;51.978;5.330;2023-07-30T14:40:44;23.50;99.90
14188;DHT22;7175;51.978;5.330;2023-07-30T14:43:12;24.40;99.90
14188;DHT22;7175;51.978;5.330;2023-07-30T14:45:41;24.70;99.90
14188;DHT22;7175;51.978;5.330;2023-07-30T14:48:10;24.50;99.90
14188;DHT22;7175;51.978;5.330;2023-07-30T14:50:39;23.60;99.90
14188;DHT22;7175;51.978;5.330;2023-07-30T14:53:10;23.20;99.90
14188;DHT22;7175;51.978;5.330;2023-07-30T14:55:38;22.90;99.90
14188;DHT22;7175;51.978;5.330;2023-07-30T14:58:06;22.90;99.90
14188;DHT22;7175;51.978;5.330;2023-07-30T15:00:36;22.80;99.90
14188;DHT22;7175;51.978;5.330;2023-07-30T15:03:04;22.80;99.90
14188;DHT22;7175;51.978;5.330;2023-07-30T15:05:33;23.00;99.90
14188;DHT22;7175;51.978;5.330;2023-07-30T15:08:01;23.10;99.90
14188;DHT22;7175;51.978;5.330;2023-07-30T15:10:31;23.20;99.90
14188;DHT22;7175;51.978;5.330;2023-07-30T15:12:59;23.20;99.90
14188;DHT22;7175;51.978;5.330;2023-07-30T15:15:27;22.90;99.90
14188;DHT22;7175;51.978;5.330;2023-07-30T15:17:55;22.80;99.90
14188;DHT22;7175;51.978;5.330;2023-07-30T15:20:24;23.00;99.90
14188;DHT22;7175;51.978;5.330;2023-07-30T15:22:58;23.00;99.90
14188;DHT22;7175;51.978;5.330;2023-07-30T15:25:26;22.70;99.90
14188;DHT22;7175;51.978;5.330;2023-07-30T15:27:56;22.80;99.90
14188;DHT22;7175;51.978;5.330;2023-07-30T15:30:27;22.80;99.90
14188;DHT22;7175;51.978;5.330;2023-07-30T15:32:56;22.70;99.90
14188;DHT22;7175;51.978;5.330;2023-07-30T15:35:25;22.60;99.90
14188;DHT22;7175;51.978;5.330;2023-07-30T15:37:54;22.50;99.90
14188;DHT22;7175;51.978;5.330;2023-07-30T15:40:22;22.80;99.90
14188;DHT22;7175;51.978;5.330;2023-07-30T15:42:51;22.90;99.90
14188;DHT22;7175;51.978;5.330;2023-07-30T15:45:21;23.00;99.90
14188;DHT22;7175;51.978;5.330;2023-07-30T15:47:49;23.00;99.90
14188;DHT22;7175;51.978;5.330;2023-07-30T15:50:21;22.90;99.90
14188;DHT22;7175;51.978;5.330;2023-07-30T15:52:51;22.80;99.90
14188;DHT22;7175;51.978;5.330;2023-07-30T15:55:19;22.70;99.90
14188;DHT22;7175;51.978;5.330;2023-07-30T15:57:48;22.70;99.90
14188;DHT22;7175;51.978;5.330;2023-07-30T16:00:17;22.50;99.90
14188;DHT22;7175;51.978;5.330;2023-07-30T16:02:47;22.50;99.90
14188;DHT22;7175;51.978;5.330;2023-07-30T16:05:16;22.70;99.90